メインページ
METAR-TAF:

METAR-TAF

空港 :

重慶江北国際空港

重慶, 中華人民共和国

緯度: 29-31N, 経度: 106-29E, 海抜: 351m

現時点の気象観測

当レポートは22分前の23:00(UTC)に作成
北/北東の風 12kt
気温 19°C
湿度 94%
気圧 1008 hPa
視程10km以上
高度400ftの雲はほとんどない
高度1100ftの雲は散在している
高度3300ftの曇り
小雨

METAR: ZUCK 242300Z 02006MPS 9999 -RA FEW004 SCT011 OVC033 19/18 Q1008 NOSIG

時間: 07:22 (23:22 UTC)

予報

当レポートは8時間20分前の15:02(UTC)に作成
予報は24日の 18時(UTC)から 25日の 18時(UTC)まで有効
北/北東の風 8kt
視程: 5000m
高度400ftの雲はほとんどない
高度1000ftの雲は散在している
高度3000ftの曇り
小雨, 靄
24日の 18時(UTC)から 24日の 24時(UTC)まで一時的に
高度200ftの雲はほとんどない
高度700ftの雲は散在している
高度3000ftの曇り

TAF: ZUCK 241502Z 2418/2518 03004MPS 5000 -RA BR FEW004 SCT010 OVC030 TX22/2508Z TN19/2421Z TEMPO 2418/2424 RA FEW002 SCT007 OVC030

4,000以上の空港の気象観測と天気予報(METAR報とTAF報)

利用可能な観測所は地図上に黄色い丸と赤い丸で示す。

丸の上にカーソルを重ねると観測所名を参照できる。

次にクリックすると気象観測と天気予報を参照できる。

マップの切り替え:黒色「×」印の緑ボタンをクリックして拡大、「-」印の緑ボタンをクリックして縮小、緑色の三角印をクリックして隣りの地図に切り替え


METAR-TAF: